Terminal Aerodrome Forecast
Issued by NWS

Home | Current Version | Previous Version | Text Only | Print | Product List | Glossary On
Versions: 1 2 3 4 5 6 7 8 9 10 11 12 13 14
000
FTAK31 PAJN 290540
TAFAWG
TAF
PAWG 290540Z 2906/3006 VRB04KT P6SM BKN080
     FM290800 VRB03KT P6SM SCT080
     FM291100 10005KT P6SM FEW080
     FM291800 09008KT P6SM BKN150
     FM292200 10008KT P6SM BKN050 OVC100
     FM300000 07010KT P6SM VCSH BKN050 OVC100
      AMD LTD TO CLD VIS AND WIND 2906/2915=

USA.gov is the U.S. government's official web portal to all federal, state and local government web resources and services.